Terminal Aerodrome Forecast
Issued by NWS Shreveport, LA

Home | Current Version | Previous Version | Text Only | Print | Product List | Glossary On
Versions: 1 2 3 4 5 6 7 8 9 10 11 12 13 14
000
FTUS44 KSHV 290800 AAA
TAFGGG
TAF AMD
KGGG 290851Z 2909/3006 34004KT 1/2SM FG VV002
     FM291600 11003KT P6SM OVC007
     FM291800 13004KT P6SM OVC015=

USA.gov is the U.S. government's official web portal to all federal, state and local government web resources and services.